createdAt,value
2022-08-19T00:02:13.328Z,100991.81
2022-08-19T00:04:47.945Z,100986.50
2022-08-19T00:07:17.490Z,100981.47
2022-08-19T00:09:46.986Z,100986.66
2022-08-19T00:12:16.594Z,100979.69
2022-08-19T00:14:46.061Z,100971.06
2022-08-19T00:17:15.778Z,100955.47
2022-08-19T00:19:47.857Z,100956.47
2022-08-19T00:22:18.865Z,100959.06
2022-08-19T00:24:50.769Z,100956.53
2022-08-19T00:27:25.910Z,100966.28
2022-08-19T00:29:56.607Z,100962.56
2022-08-19T00:32:26.320Z,100960.88
2022-08-19T00:34:59.458Z,100959.13
2022-08-19T00:37:29.426Z,100956.41
2022-08-19T00:39:59.495Z,100951.97
2022-08-19T00:42:29.394Z,100958.28
2022-08-19T00:44:58.933Z,100950.22
2022-08-19T00:47:28.477Z,100964.97
2022-08-19T00:50:02.112Z,100959.66
2022-08-19T00:52:34.587Z,100955.34
2022-08-19T00:55:04.778Z,100949.97
2022-08-19T00:57:37.527Z,100941.38
2022-08-19T01:00:10.943Z,100937.75
2022-08-19T01:02:40.469Z,100949.88
2022-08-19T01:05:16.017Z,100941.19
2022-08-19T01:07:45.968Z,100940.19
2022-08-19T01:10:19.748Z,100934.13
2022-08-19T01:12:49.942Z,100934.03
2022-08-19T01:15:21.245Z,100934.91
2022-08-19T01:17:51.370Z,100925.41
2022-08-19T01:20:26.869Z,100923.88
2022-08-19T01:23:01.537Z,100921.22
2022-08-19T01:25:34.160Z,100909.81
2022-08-19T01:28:10.671Z,100915.22
2022-08-19T01:30:44.237Z,100908.25
2022-08-19T01:33:14.019Z,100912.72
2022-08-19T01:35:44.365Z,100915.19
2022-08-19T01:38:24.860Z,100916.78
2022-08-19T01:40:54.996Z,100907.22
2022-08-19T01:43:24.505Z,100913.34
2022-08-19T01:45:54.134Z,100908.03
2022-08-19T01:48:24.603Z,100904.44
2022-08-19T01:50:54.051Z,100902.72
2022-08-19T01:53:26.645Z,100893.91
2022-08-19T01:56:00.219Z,100887.25
2022-08-19T01:58:33.483Z,100893.50
2022-08-19T02:01:03.078Z,100892.91
2022-08-19T02:03:32.650Z,100889.97
2022-08-19T02:06:03.626Z,100881.97
2022-08-19T02:08:37.469Z,100880.94
2022-08-19T02:11:08.320Z,100890.44
2022-08-19T02:13:38.341Z,100896.38
2022-08-19T02:16:08.086Z,100899.06
2022-08-19T02:18:37.566Z,100891.38
2022-08-19T02:21:07.250Z,100883.56
2022-08-19T02:23:39.718Z,100881.78
2022-08-19T02:26:09.567Z,100877.69
2022-08-19T02:28:39.094Z,100868.84
2022-08-19T02:31:13.299Z,100870.50
2022-08-19T02:33:42.822Z,100868.06
2022-08-19T02:36:13.912Z,100866.31
2022-08-19T02:38:47.163Z,100860.84
2022-08-19T02:41:26.893Z,100856.53
2022-08-19T02:44:26.283Z,100858.03
2022-08-19T02:46:51.761Z,100873.50
2022-08-19T02:49:22.590Z,100879.44
2022-08-19T02:51:52.189Z,100870.84
2022-08-19T02:54:24.339Z,100869.13
2022-08-19T02:56:56.569Z,100868.28
2022-08-19T02:59:27.434Z,100872.56
2022-08-19T03:01:57.134Z,100871.00
2022-08-19T03:04:26.699Z,100872.75
2022-08-19T03:07:00.712Z,100870.91
2022-08-19T03:09:34.741Z,100870.00
2022-08-19T03:12:04.222Z,100873.31
2022-08-19T03:14:34.942Z,100884.56
2022-08-19T03:17:05.398Z,100878.41
2022-08-19T03:19:35.530Z,100877.59
2022-08-19T03:22:05.772Z,100873.31
2022-08-19T03:24:37.866Z,100869.75
2022-08-19T03:27:07.647Z,100882.97
2022-08-19T03:29:43.161Z,100873.56
2022-08-19T03:32:31.708Z,100876.94
2022-08-19T03:35:03.373Z,100873.50
2022-08-19T03:37:32.895Z,100879.53
2022-08-19T03:40:06.555Z,100885.69
2022-08-19T03:42:58.607Z,100894.38
2022-08-19T03:45:25.588Z,100900.41
2022-08-19T03:47:55.093Z,100906.44
2022-08-19T03:50:25.418Z,100913.38
2022-08-19T03:52:55.545Z,100916.00
2022-08-19T03:55:27.595Z,100913.38
2022-08-19T03:57:59.246Z,100916.06
2022-08-19T04:00:28.973Z,100923.06
2022-08-19T04:03:00.773Z,100928.19
2022-08-19T04:05:32.191Z,100937.81
2022-08-19T04:08:01.684Z,100930.00
2022-08-19T04:10:33.713Z,100936.72
2022-08-19T04:13:03.165Z,100950.78
2022-08-19T04:15:36.693Z,100945.72
2022-08-19T04:18:08.697Z,100950.88
2022-08-19T04:20:43.131Z,100947.50
2022-08-19T04:23:12.582Z,100953.69
2022-08-19T04:25:47.251Z,100953.47
2022-08-19T04:28:16.902Z,100964.81
2022-08-19T04:30:48.462Z,100963.91
2022-08-19T04:33:26.699Z,100962.38
2022-08-19T04:35:59.186Z,100966.13
2022-08-19T04:38:29.038Z,100960.63
2022-08-19T04:41:13.610Z,100971.00
2022-08-19T04:43:43.091Z,100979.94
2022-08-19T04:46:28.520Z,100971.78
2022-08-19T04:49:10.429Z,100976.88
2022-08-19T04:51:44.678Z,100968.84
2022-08-19T04:54:14.910Z,100971.50
2022-08-19T04:56:53.897Z,100970.81
2022-08-19T04:59:24.618Z,100974.22
2022-08-19T05:01:54.165Z,100968.16
2022-08-19T05:04:24.184Z,100980.22
2022-08-19T05:06:54.337Z,100974.97
2022-08-19T05:09:52.594Z,100975.03
2022-08-19T05:12:21.896Z,100970.78
2022-08-19T05:14:55.485Z,100973.41
2022-08-19T05:17:27.598Z,100976.88
2022-08-19T05:20:11.130Z,100989.88
2022-08-19T05:22:40.672Z,100988.13
2022-08-19T05:25:13.922Z,100987.19
2022-08-19T05:27:46.394Z,100983.81
2022-08-19T05:30:16.421Z,100989.88
2022-08-19T05:32:46.302Z,101000.19
2022-08-19T05:35:15.825Z,100999.44
2022-08-19T05:37:45.298Z,100999.38
2022-08-19T05:40:15.212Z,100994.28
2022-08-19T05:42:47.520Z,100997.59
2022-08-19T05:45:25.664Z,101004.66
2022-08-19T05:47:55.219Z,100998.56
2022-08-19T05:50:25.163Z,100993.59
2022-08-19T05:52:54.813Z,100983.91
2022-08-19T05:55:24.782Z,100989.16
2022-08-19T05:57:56.836Z,100992.66
2022-08-19T06:00:26.888Z,100989.84
2022-08-19T06:02:57.577Z,100987.25
2022-08-19T06:05:27.106Z,100987.19
2022-08-19T06:07:56.558Z,100991.50
2022-08-19T06:10:27.164Z,100992.53
2022-08-19T06:12:59.439Z,100991.00
2022-08-19T06:15:29.665Z,100984.88
2022-08-19T06:17:59.122Z,100985.66
2022-08-19T06:20:54.091Z,100983.19
2022-08-19T06:23:18.121Z,100983.31
2022-08-19T06:25:48.610Z,100996.44
2022-08-19T06:28:21.175Z,100987.59
2022-08-19T06:30:51.086Z,101004.19
2022-08-19T06:33:20.601Z,101000.13
2022-08-19T06:35:50.227Z,101000.41
2022-08-19T06:38:21.486Z,100999.53
2022-08-19T06:40:51.009Z,101008.00
2022-08-19T06:43:23.622Z,101009.09
2022-08-19T06:45:59.973Z,101003.78
2022-08-19T06:48:30.669Z,101005.44
2022-08-19T06:51:00.161Z,101005.53
2022-08-19T06:53:30.504Z,101002.31
2022-08-19T06:56:01.510Z,101004.84
2022-08-19T06:58:35.573Z,101012.78
2022-08-19T07:01:09.105Z,101009.25
2022-08-19T07:03:40.605Z,101012.97
2022-08-19T07:06:32.634Z,101019.75
2022-08-19T07:09:02.210Z,101029.38
2022-08-19T07:11:33.591Z,101039.81
2022-08-19T07:14:07.555Z,101037.03
2022-08-19T07:16:49.305Z,101025.06
2022-08-19T07:19:19.774Z,101031.75
2022-08-19T07:21:50.619Z,101025.44
2022-08-19T07:24:20.793Z,101028.03
2022-08-19T07:26:51.602Z,101031.63
2022-08-19T07:29:28.446Z,101020.34
2022-08-19T07:31:59.964Z,101029.25
2022-08-19T07:34:31.213Z,101031.72
2022-08-19T07:37:00.968Z,101032.81
2022-08-19T07:39:32.653Z,101031.91
2022-08-19T07:42:03.561Z,101038.88
2022-08-19T07:44:35.648Z,101040.59
2022-08-19T07:47:05.593Z,101050.25
2022-08-19T07:49:35.129Z,101040.03
2022-08-19T07:52:10.285Z,101044.97
2022-08-19T07:54:41.837Z,101051.28
2022-08-19T07:57:12.363Z,101045.97
2022-08-19T07:59:44.453Z,101049.59
2022-08-19T08:02:13.934Z,101048.84
2022-08-19T08:04:55.846Z,101054.78
2022-08-19T08:07:37.825Z,101065.22
2022-08-19T08:10:13.999Z,101062.59
2022-08-19T08:13:08.881Z,101064.38
2022-08-19T08:15:43.859Z,101076.44
2022-08-19T08:18:13.425Z,101071.19
2022-08-19T08:20:44.144Z,101072.91
2022-08-19T08:23:30.231Z,101069.47
2022-08-19T08:26:02.942Z,101074.84
2022-08-19T08:28:33.057Z,101067.03
2022-08-19T08:31:09.356Z,101067.16
2022-08-19T08:33:39.281Z,101070.78
2022-08-19T08:36:12.518Z,101071.59
2022-08-19T08:38:42.070Z,101070.63
2022-08-19T08:41:20.035Z,101073.25
2022-08-19T08:43:52.052Z,101072.38
2022-08-19T08:46:30.683Z,101070.53
2022-08-19T08:49:09.752Z,101070.59
2022-08-19T08:54:37.275Z,101069.78
2022-08-19T08:57:08.993Z,101078.50
2022-08-19T08:59:42.189Z,101066.31
2022-08-19T09:02:14.273Z,101068.94
2022-08-19T09:04:43.746Z,101063.00
2022-08-19T09:07:35.092Z,101072.56
2022-08-19T09:10:08.485Z,101070.03
2022-08-19T09:12:45.703Z,101067.44
2022-08-19T09:15:17.631Z,101071.91
2022-08-19T09:17:50.194Z,101074.56
2022-08-19T09:20:23.514Z,101071.00
2022-08-19T09:22:55.682Z,101076.28
2022-08-19T09:25:29.394Z,101073.66
2022-08-19T09:28:05.616Z,101079.75
2022-08-19T09:30:43.231Z,101084.19
2022-08-19T09:33:15.370Z,101083.38
2022-08-19T09:35:53.705Z,101081.66
2022-08-19T09:38:23.725Z,101067.84
2022-08-19T09:40:53.354Z,101072.38
2022-08-19T09:43:32.594Z,101065.28
2022-08-19T09:46:03.738Z,101066.22
2022-08-19T09:48:35.909Z,101073.25
2022-08-19T09:51:11.912Z,101075.25
2022-08-19T09:53:42.285Z,101076.84
2022-08-19T09:56:11.929Z,101069.81
2022-08-19T09:58:41.932Z,101075.81
2022-08-19T10:01:11.746Z,101074.97
2022-08-19T10:03:43.889Z,101064.59
2022-08-19T10:06:14.940Z,101067.31
2022-08-19T10:08:50.255Z,101070.81
2022-08-19T10:11:28.650Z,101066.53
2022-08-19T10:14:06.832Z,101067.50
2022-08-19T10:16:39.547Z,101075.38
2022-08-19T10:19:12.333Z,101082.47
2022-08-19T10:21:41.878Z,101077.19
2022-08-19T10:24:12.619Z,101085.91
2022-08-19T10:26:45.892Z,101085.88
2022-08-19T10:29:32.969Z,101084.97
2022-08-19T10:32:03.386Z,101084.16
2022-08-19T10:34:36.253Z,101077.09
2022-08-19T10:37:28.813Z,101082.34
2022-08-19T10:40:00.684Z,101079.63
2022-08-19T10:42:32.142Z,101076.97
2022-08-19T10:45:01.863Z,101072.72
2022-08-19T10:47:34.353Z,101075.31
2022-08-19T10:50:20.097Z,101077.84
2022-08-19T10:52:50.959Z,101072.63
2022-08-19T10:55:34.732Z,101075.25
2022-08-19T10:58:04.527Z,101070.88
2022-08-19T11:00:34.595Z,101068.25
2022-08-19T11:03:04.029Z,101058.69
2022-08-19T11:05:40.227Z,101065.78
2022-08-19T11:08:22.988Z,101071.97
2022-08-19T11:10:54.697Z,101075.47
2022-08-19T11:13:24.373Z,101065.13
2022-08-19T11:16:04.004Z,101061.75
2022-08-19T11:18:37.317Z,101066.94
2022-08-19T11:21:15.668Z,101053.91
2022-08-19T11:23:45.118Z,101058.25
2022-08-19T11:26:14.702Z,101060.28
2022-08-19T11:28:44.965Z,101056.97
2022-08-19T11:31:15.466Z,101068.44
2022-08-19T11:33:47.645Z,101057.97
2022-08-19T11:36:21.515Z,101063.31
2022-08-19T11:38:51.474Z,101061.59
2022-08-19T11:41:23.902Z,101060.75
2022-08-19T11:43:54.982Z,101062.56
2022-08-19T11:46:25.833Z,101052.13
2022-08-19T11:48:55.685Z,101054.78
2022-08-19T11:51:28.981Z,101048.69
2022-08-19T11:53:59.593Z,101049.63
2022-08-19T11:56:30.943Z,101051.44
2022-08-19T11:59:00.713Z,101049.69
2022-08-19T12:01:30.218Z,101047.94
2022-08-19T12:04:00.753Z,101051.44
2022-08-19T12:06:35.769Z,101058.38
2022-08-19T12:09:08.283Z,101052.19
2022-08-19T12:11:37.840Z,101047.78
2022-08-19T12:14:07.593Z,101059.16
2022-08-19T12:16:40.997Z,101060.91
2022-08-19T12:19:21.156Z,101053.94
2022-08-19T12:21:57.996Z,101051.31
2022-08-19T12:24:27.464Z,101058.31
2022-08-19T12:27:00.931Z,101065.22
2022-08-19T12:29:33.366Z,101046.84
2022-08-19T12:32:04.034Z,101052.13
2022-08-19T12:34:35.099Z,101048.69
2022-08-19T12:37:08.821Z,101057.44
2022-08-19T12:39:39.820Z,101047.88
2022-08-19T12:42:09.857Z,101042.69
2022-08-19T12:44:40.685Z,101040.91
2022-08-19T12:47:14.221Z,101040.06
2022-08-19T12:49:53.339Z,101038.34
2022-08-19T12:52:28.131Z,101038.41
2022-08-19T12:54:59.126Z,101041.91
2022-08-19T12:57:33.499Z,101052.41
2022-08-19T13:00:06.082Z,101053.28
2022-08-19T13:02:38.871Z,101045.41
2022-08-19T13:05:12.251Z,101059.41
2022-08-19T13:07:44.884Z,101061.16
2022-08-19T13:10:16.190Z,101055.91
2022-08-19T13:12:46.058Z,101048.03
2022-08-19T13:15:17.610Z,101052.38
2022-08-19T13:17:49.201Z,101041.88
2022-08-19T13:20:19.987Z,101040.97
2022-08-19T13:22:52.521Z,101047.97
2022-08-19T13:25:22.661Z,101034.91
2022-08-19T13:27:53.174Z,101039.28
2022-08-19T13:30:36.139Z,101039.28
2022-08-19T13:33:15.588Z,101035.78
2022-08-19T13:35:48.964Z,101045.41
2022-08-19T13:38:23.654Z,101042.78
2022-08-19T13:40:55.120Z,101045.41
2022-08-19T13:43:26.983Z,101046.28
2022-08-19T13:45:57.985Z,101043.66
2022-08-19T13:48:28.989Z,101034.91
2022-08-19T13:50:59.585Z,101032.28
2022-08-19T13:53:31.883Z,101032.28
2022-08-19T13:56:01.382Z,101027.91
2022-08-19T13:58:32.575Z,101027.03
2022-08-19T14:01:02.863Z,101027.03
2022-08-19T14:03:32.394Z,101031.41
2022-08-19T14:06:02.355Z,101039.28
2022-08-19T14:08:34.419Z,101034.06
2022-08-19T14:11:06.565Z,101033.16
2022-08-19T14:13:36.453Z,101043.72
2022-08-19T14:16:10.878Z,101033.16
2022-08-19T14:18:40.616Z,101034.03
2022-08-19T14:21:10.946Z,101027.00
2022-08-19T14:23:43.009Z,101018.25
2022-08-19T14:26:14.465Z,101016.50
2022-08-19T14:28:44.603Z,101018.28
2022-08-19T14:31:17.614Z,101020.00
2022-08-19T14:33:47.204Z,101013.00
2022-08-19T14:36:16.755Z,101008.66
2022-08-19T14:38:49.844Z,101015.66
2022-08-19T14:41:21.378Z,101016.50
2022-08-19T14:43:52.302Z,101020.00
2022-08-19T14:46:24.145Z,101016.50
2022-08-19T14:48:55.382Z,101019.16
2022-08-19T14:51:27.895Z,101019.16
2022-08-19T14:54:00.436Z,101027.03
2022-08-19T14:56:32.941Z,101026.13
2022-08-19T14:59:02.909Z,101027.03
2022-08-19T15:01:32.388Z,101026.16
2022-08-19T15:04:01.909Z,101029.66
2022-08-19T15:06:32.747Z,101033.19
2022-08-19T15:09:04.818Z,101036.69
2022-08-19T15:11:35.111Z,101044.56
2022-08-19T15:14:06.310Z,101044.56
2022-08-19T15:16:36.433Z,101045.41
2022-08-19T15:19:05.893Z,101051.56
2022-08-19T15:21:35.370Z,101049.81
2022-08-19T15:24:08.686Z,101048.06
2022-08-19T15:26:38.196Z,101055.94
2022-08-19T15:29:08.157Z,101051.53
2022-08-19T15:31:38.338Z,101062.03
2022-08-19T15:34:08.553Z,101069.91
2022-08-19T15:36:38.385Z,101068.16
2022-08-19T15:39:11.018Z,101068.16
2022-08-19T15:41:41.178Z,101068.09
2022-08-19T15:44:14.600Z,101072.50
2022-08-19T15:46:45.323Z,101076.88
2022-08-19T15:49:16.397Z,101083.00
2022-08-19T15:51:51.938Z,101079.50
2022-08-19T15:54:24.649Z,101092.63
2022-08-19T15:57:08.339Z,101088.28
2022-08-19T15:59:51.911Z,101080.38
2022-08-19T16:02:37.127Z,101087.41
2022-08-19T16:05:35.993Z,101083.91
2022-08-19T16:08:05.525Z,101089.19
2022-08-19T16:10:38.473Z,101087.44
2022-08-19T16:13:09.473Z,101093.56
2022-08-19T16:15:42.051Z,101080.44
2022-08-19T16:18:11.605Z,101071.72
2022-08-19T16:20:41.116Z,101075.22
2022-08-19T16:23:11.138Z,101069.97
2022-08-19T16:25:43.178Z,101067.31
2022-08-19T16:28:12.906Z,101067.31
2022-08-19T16:30:48.762Z,101073.44
2022-08-19T16:33:22.992Z,101072.59
2022-08-19T16:36:00.319Z,101072.53
2022-08-19T16:38:37.658Z,101075.16
2022-08-19T16:41:09.829Z,101061.13
2022-08-19T16:43:40.078Z,101065.53
2022-08-19T16:46:10.002Z,101065.53
2022-08-19T16:48:43.023Z,101063.81
2022-08-19T16:51:13.042Z,101060.31
2022-08-19T16:53:45.189Z,101064.69
2022-08-19T16:56:17.930Z,101054.16
2022-08-19T16:58:47.763Z,101054.16
2022-08-19T17:01:17.328Z,101048.06
2022-08-19T17:03:48.541Z,101051.53
2022-08-19T17:06:20.756Z,101054.16
2022-08-19T17:08:51.618Z,101045.38
2022-08-19T17:11:24.641Z,101050.63
2022-08-19T17:13:55.431Z,101048.84
2022-08-19T17:16:27.214Z,101048.84
2022-08-19T17:18:58.406Z,101044.47
2022-08-19T17:21:31.910Z,101045.31
2022-08-19T17:24:02.454Z,101040.94
2022-08-19T17:26:35.001Z,101047.06
2022-08-19T17:29:04.598Z,101054.06
2022-08-19T17:31:34.780Z,101045.31
2022-08-19T17:34:04.286Z,101045.31
2022-08-19T17:36:35.382Z,101047.03
2022-08-19T17:39:06.037Z,101045.28
2022-08-19T17:41:38.193Z,101046.94
2022-08-19T17:44:09.651Z,101045.19
2022-08-19T17:46:39.134Z,101046.97
2022-08-19T17:49:08.637Z,101052.16
2022-08-19T17:51:45.094Z,101049.50
2022-08-19T17:54:17.187Z,101046.03
2022-08-19T17:56:50.057Z,101048.69
2022-08-19T17:59:19.584Z,101053.00
2022-08-19T18:01:54.478Z,101046.00
2022-08-19T18:04:25.508Z,101040.78
2022-08-19T18:06:56.142Z,101044.25
2022-08-19T18:09:27.652Z,101048.56
2022-08-19T18:12:00.402Z,101052.03
2022-08-19T18:14:33.787Z,101037.97
2022-08-19T18:17:06.255Z,101033.59
2022-08-19T18:19:41.364Z,101031.00
2022-08-19T18:22:24.998Z,101023.09
2022-08-19T18:24:54.769Z,101027.34
2022-08-19T18:27:27.795Z,101017.75
2022-08-19T18:29:59.639Z,101020.38
2022-08-19T18:32:31.842Z,101017.59
2022-08-19T18:35:03.041Z,101026.19
2022-08-19T18:37:32.634Z,101020.00
2022-08-19T18:40:14.669Z,101016.47
2022-08-19T18:43:02.150Z,101024.25
2022-08-19T18:45:44.322Z,101012.91
2022-08-19T18:48:28.138Z,101012.81
2022-08-19T18:50:59.735Z,101009.28
2022-08-19T18:53:30.563Z,101002.31
2022-08-19T18:56:00.502Z,101000.53
2022-08-19T18:58:34.804Z,101008.28
2022-08-19T19:01:11.489Z,101005.63
2022-08-19T19:03:42.861Z,101010.06
2022-08-19T19:06:12.342Z,101008.34
2022-08-19T19:08:42.030Z,101012.81
2022-08-19T19:11:11.994Z,101008.47
2022-08-19T19:13:46.929Z,101008.38
2022-08-19T19:16:16.408Z,101004.94
2022-08-19T19:18:45.877Z,101001.44
2022-08-19T19:21:15.333Z,101012.78
2022-08-19T19:23:44.801Z,101015.03
2022-08-19T19:26:15.861Z,101019.13
2022-08-19T19:28:48.463Z,101017.13
2022-08-19T19:31:19.962Z,101016.97
2022-08-19T19:33:49.609Z,101021.34
2022-08-19T19:36:19.172Z,101011.81
2022-08-19T19:38:49.106Z,101025.69
2022-08-19T19:41:21.065Z,101020.41
2022-08-19T19:44:09.828Z,101022.06
2022-08-19T19:46:45.299Z,101026.34
2022-08-19T19:49:15.325Z,101022.78
2022-08-19T19:51:45.708Z,101020.13
2022-08-19T19:54:18.662Z,101027.00
2022-08-19T19:56:51.217Z,101016.56
2022-08-19T19:59:23.631Z,101019.94
2022-08-19T20:01:54.613Z,101016.25
2022-08-19T20:04:24.128Z,101018.00
2022-08-19T20:06:53.630Z,101011.06
2022-08-19T20:09:20.554Z,101010.94
2022-08-19T20:11:53.659Z,101017.06
2022-08-19T20:14:28.241Z,101014.31
2022-08-19T20:16:59.135Z,101013.34
2022-08-19T20:19:31.260Z,101016.94
2022-08-19T20:22:00.755Z,101029.03
2022-08-19T20:24:35.326Z,101028.78
2022-08-19T20:27:06.846Z,101032.94
2022-08-19T20:29:41.451Z,101033.72
2022-08-19T20:32:11.604Z,101033.59
2022-08-19T20:34:43.642Z,101037.84
2022-08-19T20:37:13.114Z,101048.19
2022-08-19T20:39:42.634Z,101044.63
2022-08-19T20:42:12.175Z,101040.25
2022-08-19T20:44:44.194Z,101043.63
2022-08-19T20:47:13.874Z,101041.09
2022-08-19T20:49:43.399Z,101043.69
2022-08-19T20:52:12.859Z,101045.59
2022-08-19T20:54:42.354Z,101039.56
2022-08-19T20:57:11.835Z,101040.38
2022-08-19T20:59:44.278Z,101035.25
2022-08-19T21:02:13.829Z,101033.53
2022-08-19T21:04:43.447Z,101035.25
2022-08-19T21:07:12.943Z,101041.28
2022-08-19T21:09:42.591Z,101038.63
2022-08-19T21:12:14.350Z,101037.81
2022-08-19T21:14:47.194Z,101031.81
2022-08-19T21:17:17.013Z,101036.06
2022-08-19T21:19:46.466Z,101044.59
2022-08-19T21:22:15.991Z,101044.56
2022-08-19T21:24:45.872Z,101057.75
2022-08-19T21:38:50.716Z,101047.53
2022-08-19T21:41:20.195Z,101050.06
2022-08-19T21:43:49.659Z,101048.25
2022-08-19T21:46:19.174Z,101053.63
2022-08-19T21:48:48.644Z,101055.28
2022-08-19T21:51:18.349Z,101047.31
2022-08-19T21:53:53.520Z,101051.47
2022-08-19T21:56:23.313Z,101043.88
2022-08-19T21:58:56.629Z,101047.34
2022-08-19T22:01:26.500Z,101050.88
2022-08-19T22:03:56.036Z,101045.72
2022-08-19T22:06:26.074Z,101049.94
2022-08-19T22:08:58.250Z,101056.69
2022-08-19T22:11:29.206Z,101056.03
2022-08-19T22:13:59.233Z,101049.59
2022-08-19T22:16:28.745Z,101056.81
2022-08-19T22:18:59.288Z,101053.16
2022-08-19T22:21:40.404Z,101054.13
2022-08-19T22:24:13.302Z,101060.06
2022-08-19T22:26:42.789Z,101065.53
2022-08-19T22:29:15.771Z,101070.31
2022-08-19T22:31:54.572Z,101058.31
2022-08-19T22:34:28.617Z,101063.13
2022-08-19T22:36:58.553Z,101063.78
2022-08-19T22:39:30.594Z,101056.25
2022-08-19T22:42:00.086Z,101048.78
2022-08-19T22:44:29.699Z,101064.72
2022-08-19T22:46:59.211Z,101052.19
2022-08-19T22:49:28.747Z,101053.00
2022-08-19T22:52:10.706Z,101047.63
2022-08-19T22:54:42.806Z,101039.00
2022-08-19T22:57:12.326Z,101041.59
2022-08-19T22:59:41.903Z,101041.06
2022-08-19T23:02:12.234Z,101045.53
2022-08-19T23:04:41.701Z,101042.28
2022-08-19T23:07:11.155Z,101049.31
2022-08-19T23:09:43.267Z,101051.00
2022-08-19T23:12:13.877Z,101054.69
2022-08-19T23:14:43.703Z,101056.41
2022-08-19T23:17:14.181Z,101057.66
2022-08-19T23:19:43.787Z,101059.69
2022-08-19T23:22:13.256Z,101057.66
2022-08-19T23:24:45.402Z,101061.34
2022-08-19T23:27:27.409Z,101058.97
2022-08-19T23:30:09.358Z,101057.09
2022-08-19T23:32:38.914Z,101064.97
2022-08-19T23:35:09.566Z,101065.44
2022-08-19T23:37:39.318Z,101056.59
2022-08-19T23:40:12.724Z,101058.22
2022-08-19T23:42:44.398Z,101058.44
2022-08-19T23:45:14.855Z,101056.56
2022-08-19T23:47:51.030Z,101050.38
2022-08-19T23:50:23.334Z,101052.19
2022-08-19T23:52:55.701Z,101045.88
2022-08-19T23:55:32.246Z,101051.22
2022-08-19T23:58:01.883Z,101047.88
